createdAt,value
2023-03-26T00:00:22.658Z,1568.00
2023-03-26T00:04:22.222Z,1563.00
2023-03-26T00:08:22.912Z,1557.00
2023-03-26T00:12:22.310Z,1562.00
2023-03-26T00:16:22.507Z,1556.00
2023-03-26T00:20:22.361Z,1549.00
2023-03-26T00:24:22.708Z,1549.00
2023-03-26T00:28:22.558Z,1547.00
2023-03-26T00:32:22.523Z,1538.00
2023-03-26T00:36:22.737Z,1536.00
2023-03-26T00:40:22.731Z,1534.00
2023-03-26T00:44:22.760Z,1525.00
2023-03-26T00:48:31.357Z,1518.00
2023-03-26T00:52:23.812Z,1522.00
2023-03-26T00:56:22.837Z,1523.00
2023-03-26T01:00:22.653Z,1519.00
2023-03-26T01:04:22.790Z,1511.00
2023-03-26T01:08:22.931Z,1513.00
2023-03-26T01:12:22.741Z,1503.00
2023-03-26T01:16:22.808Z,1496.00
2023-03-26T01:20:23.003Z,1503.00
2023-03-26T01:24:22.972Z,1499.00
2023-03-26T01:28:23.141Z,1496.00
2023-03-26T01:32:23.219Z,1486.00
2023-03-26T01:36:23.492Z,1479.00
2023-03-26T01:40:24.370Z,1477.00
2023-03-26T01:44:23.534Z,1473.00
2023-03-26T01:48:23.986Z,1469.00
2023-03-26T01:52:23.900Z,1463.00
2023-03-26T01:56:24.001Z,1458.00
2023-03-26T02:00:24.075Z,1459.00
2023-03-26T02:04:24.643Z,1449.00
2023-03-26T02:08:24.422Z,1450.00
2023-03-26T02:12:24.900Z,1452.00
2023-03-26T02:16:24.899Z,1434.00
2023-03-26T02:20:24.932Z,1433.00
2023-03-26T02:24:25.167Z,1429.00
2023-03-26T02:28:25.313Z,1423.00
2023-03-26T02:32:27.334Z,1426.00
2023-03-26T02:36:25.550Z,1417.00
2023-03-26T02:40:25.429Z,1424.00
2023-03-26T02:44:25.455Z,1408.00
2023-03-26T02:48:25.331Z,1409.00
2023-03-26T02:52:25.570Z,1405.00
2023-03-26T02:56:25.471Z,1404.00
2023-03-26T03:00:25.618Z,1399.00
2023-03-26T03:04:25.330Z,1396.00
2023-03-26T03:08:25.406Z,1393.00
2023-03-26T03:12:25.602Z,1395.00
2023-03-26T03:16:25.823Z,1389.00
2023-03-26T03:20:25.943Z,1376.00
2023-03-26T03:24:26.243Z,1384.00
2023-03-26T03:28:26.367Z,1368.00
2023-03-26T03:32:26.633Z,1375.00
2023-03-26T03:36:26.835Z,1366.00
2023-03-26T03:40:26.889Z,1372.00
2023-03-26T03:44:26.708Z,1359.00
2023-03-26T03:48:27.215Z,1356.00
2023-03-26T03:52:26.703Z,1358.00
2023-03-26T03:56:26.692Z,1350.00
2023-03-26T04:00:26.633Z,1348.00
2023-03-26T04:04:26.605Z,1339.00
2023-03-26T04:08:26.598Z,1342.00
2023-03-26T04:12:26.606Z,1340.00
2023-03-26T04:16:26.631Z,1341.00
2023-03-26T04:20:26.652Z,1332.00
2023-03-26T04:24:26.556Z,1322.00
2023-03-26T04:28:26.507Z,1330.00
2023-03-26T04:32:26.753Z,1329.00
2023-03-26T04:36:26.412Z,1315.00
2023-03-26T04:40:26.390Z,1319.00
2023-03-26T04:44:26.410Z,1318.00
2023-03-26T04:48:26.330Z,1310.00
2023-03-26T04:52:26.263Z,1306.00
2023-03-26T04:56:26.246Z,1310.00
2023-03-26T05:00:26.216Z,1305.00
2023-03-26T05:04:26.321Z,1306.00
2023-03-26T05:08:26.450Z,1296.00
2023-03-26T05:12:26.590Z,1296.00
2023-03-26T05:16:26.709Z,1282.00
2023-03-26T05:20:27.481Z,1291.00
2023-03-26T05:24:26.778Z,1287.00
2023-03-26T05:28:26.891Z,1285.00
2023-03-26T05:32:26.963Z,1280.00
2023-03-26T05:36:27.584Z,1277.00
2023-03-26T05:40:26.942Z,1275.00
2023-03-26T05:44:26.967Z,1274.00
2023-03-26T05:48:27.121Z,1276.00
2023-03-26T05:52:27.807Z,1273.00
2023-03-26T05:56:27.324Z,1264.00
2023-03-26T06:00:27.465Z,1272.00
2023-03-26T06:04:27.487Z,1259.00
2023-03-26T06:08:27.566Z,1254.00
2023-03-26T06:12:27.832Z,1260.00
2023-03-26T06:16:28.360Z,1259.00
2023-03-26T06:20:28.096Z,1259.00
2023-03-26T06:24:28.443Z,1255.00
2023-03-26T06:28:28.496Z,1241.00
2023-03-26T06:32:28.513Z,1259.00
2023-03-26T06:36:28.488Z,1254.00
2023-03-26T06:40:28.436Z,1258.00
2023-03-26T06:44:28.346Z,1251.00
2023-03-26T06:48:28.293Z,1250.00
2023-03-26T06:52:28.316Z,1243.00
2023-03-26T06:56:28.219Z,1255.00
2023-03-26T07:00:28.220Z,1233.00
2023-03-26T07:04:28.229Z,1252.00
2023-03-26T07:08:28.351Z,1247.00
2023-03-26T07:12:28.236Z,1250.00
2023-03-26T07:16:28.227Z,1236.00
2023-03-26T07:20:28.179Z,1235.00
2023-03-26T07:24:28.130Z,1239.00
2023-03-26T07:28:28.089Z,1241.00
2023-03-26T07:32:28.067Z,1234.00
2023-03-26T07:36:28.049Z,1233.00
2023-03-26T07:40:27.975Z,1236.00
2023-03-26T07:44:28.006Z,1226.00
2023-03-26T07:48:27.931Z,1222.00
2023-03-26T07:52:27.885Z,1217.00
2023-03-26T07:56:27.848Z,1236.00
2023-03-26T08:00:27.793Z,1223.00
2023-03-26T08:04:27.976Z,1226.00
2023-03-26T08:08:27.825Z,1226.00
2023-03-26T08:12:27.836Z,1221.00
2023-03-26T08:16:27.911Z,1222.00
2023-03-26T08:20:28.433Z,1220.00
2023-03-26T08:24:28.224Z,1214.00
2023-03-26T08:28:27.899Z,1209.00
2023-03-26T08:32:27.965Z,1211.00
2023-03-26T08:36:27.933Z,1212.00
2023-03-26T08:40:28.115Z,1222.00
2023-03-26T08:44:28.749Z,1218.00
2023-03-26T08:48:28.486Z,1219.00
2023-03-26T08:52:28.659Z,1215.00
2023-03-26T08:56:29.244Z,1219.00
2023-03-26T09:00:28.772Z,1205.00
2023-03-26T09:04:28.684Z,1199.00
2023-03-26T09:08:30.095Z,1216.00
2023-03-26T09:12:28.654Z,1206.00
2023-03-26T09:16:28.655Z,1192.00
2023-03-26T09:20:28.808Z,1193.00
2023-03-26T09:24:28.554Z,1208.00
2023-03-26T09:28:28.547Z,1202.00
2023-03-26T09:32:28.993Z,1202.00
2023-03-26T09:36:28.569Z,1208.00
2023-03-26T09:40:28.544Z,1197.00
2023-03-26T09:44:28.401Z,1189.00
2023-03-26T09:48:28.379Z,1204.00
2023-03-26T09:52:28.350Z,1195.00
2023-03-26T09:56:28.770Z,1202.00
2023-03-26T10:00:29.126Z,1205.00
2023-03-26T10:04:28.455Z,1207.00
2023-03-26T10:08:30.256Z,1204.00
2023-03-26T10:12:28.436Z,1198.00
2023-03-26T10:16:28.638Z,1194.00
2023-03-26T10:20:28.741Z,1185.00
2023-03-26T10:24:28.794Z,1204.00
2023-03-26T10:28:28.281Z,1195.00
2023-03-26T10:32:29.582Z,1215.00
2023-03-26T10:36:28.252Z,1204.00
2023-03-26T10:40:28.206Z,1195.00
2023-03-26T10:44:28.702Z,1205.00
2023-03-26T10:48:28.122Z,1187.00
2023-03-26T10:52:28.101Z,1195.00
2023-03-26T10:56:28.149Z,1200.00
2023-03-26T11:00:28.515Z,1171.00
2023-03-26T11:04:28.514Z,1198.00
2023-03-26T11:08:31.688Z,1203.00
2023-03-26T11:12:29.012Z,1197.00
2023-03-26T11:16:28.683Z,1180.00
2023-03-26T11:20:28.567Z,1190.00
2023-03-26T11:24:28.770Z,1192.00
2023-03-26T11:28:28.501Z,1183.00
2023-03-26T11:32:28.771Z,1188.00
2023-03-26T11:36:28.682Z,1184.00
2023-03-26T11:40:28.502Z,1186.00
2023-03-26T11:44:28.350Z,1187.00
2023-03-26T11:48:28.408Z,1186.00
2023-03-26T11:52:28.314Z,1171.00
2023-03-26T11:56:28.669Z,1169.00
2023-03-26T12:00:32.080Z,1166.00
2023-03-26T12:04:31.355Z,1170.00
2023-03-26T12:08:28.305Z,1175.00
2023-03-26T12:12:28.665Z,1179.00
2023-03-26T12:16:28.216Z,1167.00
2023-03-26T12:20:28.216Z,1180.00
2023-03-26T12:24:28.177Z,1175.00
2023-03-26T12:28:28.573Z,1174.00
2023-03-26T12:32:42.964Z,1167.00
2023-03-26T12:36:29.079Z,1176.00
2023-03-26T12:40:28.062Z,1179.00
2023-03-26T12:44:47.105Z,1173.00
2023-03-26T12:48:28.936Z,1190.00
2023-03-26T12:52:27.926Z,1193.00
2023-03-26T12:56:27.892Z,1183.00
2023-03-26T13:00:28.588Z,1179.00
2023-03-26T13:04:28.208Z,1189.00
2023-03-26T13:08:28.371Z,1188.00
2023-03-26T13:12:28.610Z,1204.00
2023-03-26T13:16:28.828Z,1178.00
2023-03-26T13:20:29.005Z,1187.00
2023-03-26T13:24:29.211Z,1190.00
2023-03-26T13:28:29.200Z,1183.00
2023-03-26T13:32:29.198Z,1190.00
2023-03-26T13:36:29.185Z,1185.00
2023-03-26T13:40:29.088Z,1189.00
2023-03-26T13:44:29.084Z,1193.00
2023-03-26T13:48:29.009Z,1193.00
2023-03-26T13:52:29.071Z,1186.00
2023-03-26T13:56:28.907Z,1196.00
2023-03-26T14:00:28.997Z,1184.00
2023-03-26T14:04:29.167Z,1186.00
2023-03-26T14:08:30.124Z,1191.00
2023-03-26T14:12:29.014Z,1197.00
2023-03-26T14:16:28.933Z,1189.00
2023-03-26T14:20:28.816Z,1185.00
2023-03-26T14:24:28.854Z,1187.00
2023-03-26T14:28:28.785Z,1183.00
2023-03-26T14:32:29.078Z,1189.00
2023-03-26T14:36:29.339Z,1192.00
2023-03-26T14:40:28.788Z,1186.00
2023-03-26T14:44:28.613Z,1191.00
2023-03-26T14:48:28.616Z,1186.00
2023-03-26T14:52:28.856Z,1186.00
2023-03-26T14:56:28.841Z,1190.00
2023-03-26T15:00:28.793Z,1186.00
2023-03-26T15:04:28.509Z,1183.00
2023-03-26T15:08:33.288Z,1183.00
2023-03-26T15:12:29.698Z,1183.00
2023-03-26T15:16:28.454Z,1174.00
2023-03-26T15:20:28.301Z,1180.00
2023-03-26T15:24:28.656Z,1181.00
2023-03-26T15:28:28.679Z,1173.00
2023-03-26T15:32:28.720Z,1178.00
2023-03-26T15:36:28.201Z,1177.00
2023-03-26T15:40:28.193Z,1176.00
2023-03-26T15:44:28.182Z,1172.00
2023-03-26T15:48:28.207Z,1172.00
2023-03-26T15:52:28.208Z,1171.00
2023-03-26T15:56:28.587Z,1169.00
2023-03-26T16:00:28.293Z,1177.00
2023-03-26T16:04:28.352Z,1174.00
2023-03-26T16:08:28.577Z,1170.00
2023-03-26T16:12:28.363Z,1172.00
2023-03-26T16:16:28.573Z,1166.00
2023-03-26T16:20:28.421Z,1177.00
2023-03-26T16:24:28.637Z,1170.00
2023-03-26T16:28:28.633Z,1180.00
2023-03-26T16:32:28.956Z,1168.00
2023-03-26T16:36:29.078Z,1168.00
2023-03-26T16:40:28.985Z,1174.00
2023-03-26T16:44:29.006Z,1172.00
2023-03-26T16:48:29.118Z,1174.00
2023-03-26T16:52:29.246Z,1172.00
2023-03-26T16:56:29.311Z,1164.00
2023-03-26T17:00:29.503Z,1170.00
2023-03-26T17:04:29.584Z,1166.00
2023-03-26T17:08:35.553Z,1159.00
2023-03-26T17:12:31.114Z,1160.00
2023-03-26T17:16:29.686Z,1162.00
2023-03-26T17:20:29.635Z,1159.00
2023-03-26T17:24:29.592Z,1159.00
2023-03-26T17:28:30.103Z,1163.00
2023-03-26T17:32:29.987Z,1164.00
2023-03-26T17:36:30.185Z,1160.00
2023-03-26T17:40:30.309Z,1165.00
2023-03-26T17:44:30.524Z,1157.00
2023-03-26T17:48:30.659Z,1166.00
2023-03-26T17:52:30.895Z,1163.00
2023-03-26T17:56:31.081Z,1163.00
2023-03-26T18:00:31.580Z,1156.00
2023-03-26T18:04:31.791Z,1157.00
2023-03-26T18:08:31.972Z,1158.00
2023-03-26T18:12:31.940Z,1155.00
2023-03-26T18:16:32.347Z,1158.00
2023-03-26T18:20:32.349Z,1163.00
2023-03-26T18:24:32.491Z,1155.00
2023-03-26T18:28:32.383Z,1165.00
2023-03-26T18:32:32.431Z,1162.00
2023-03-26T18:36:32.333Z,1164.00
2023-03-26T18:40:32.383Z,1157.00
2023-03-26T18:44:32.472Z,1157.00
2023-03-26T18:48:32.229Z,1162.00
2023-03-26T18:52:32.611Z,1162.00
2023-03-26T18:56:32.330Z,1153.00
2023-03-26T19:00:32.139Z,1159.00
2023-03-26T19:04:32.055Z,1163.00
2023-03-26T19:08:32.249Z,1164.00
2023-03-26T19:12:32.759Z,1170.00
2023-03-26T19:16:32.959Z,1159.00
2023-03-26T19:20:32.503Z,1152.00
2023-03-26T19:24:32.422Z,1152.00
2023-03-26T19:28:32.594Z,1156.00
2023-03-26T19:32:32.506Z,1167.00
2023-03-26T19:36:32.334Z,1168.00
2023-03-26T19:40:32.239Z,1156.00
2023-03-26T19:44:32.281Z,1171.00
2023-03-26T19:48:45.292Z,1167.00
2023-03-26T19:52:33.119Z,1168.00
2023-03-26T19:56:32.403Z,1161.00
2023-03-26T20:00:32.311Z,1163.00
2023-03-26T20:04:32.143Z,1160.00
2023-03-26T20:08:32.450Z,1159.00
2023-03-26T20:12:32.269Z,1173.00
2023-03-26T20:16:32.283Z,1158.00
2023-03-26T20:20:32.484Z,1171.00
2023-03-26T20:24:32.461Z,1169.00
2023-03-26T20:28:38.721Z,1168.00
2023-03-26T20:32:33.342Z,1172.00
2023-03-26T20:36:34.309Z,1163.00
2023-03-26T20:40:32.722Z,1167.00
2023-03-26T20:44:32.478Z,1159.00
2023-03-26T20:48:32.434Z,1159.00
2023-03-26T20:52:32.489Z,1162.00
2023-03-26T20:56:32.568Z,1161.00
2023-03-26T21:00:32.614Z,1169.00
2023-03-26T21:04:32.905Z,1170.00
2023-03-26T21:08:32.604Z,1157.00
2023-03-26T21:12:32.763Z,1167.00
2023-03-26T21:16:33.050Z,1167.00
2023-03-26T21:20:32.659Z,1162.00
2023-03-26T21:24:32.746Z,1154.00
2023-03-26T21:28:41.752Z,1175.00
2023-03-26T21:32:33.648Z,1166.00
2023-03-26T21:36:32.586Z,1168.00
2023-03-26T21:40:32.444Z,1171.00
2023-03-26T21:44:32.559Z,1166.00
2023-03-26T21:48:32.376Z,1172.00
2023-03-26T21:52:32.310Z,1154.00
2023-03-26T21:56:32.357Z,1164.00
2023-03-26T22:00:43.194Z,1164.00
2023-03-26T22:04:33.244Z,1168.00
2023-03-26T22:08:32.189Z,1160.00
2023-03-26T22:12:33.862Z,1166.00
2023-03-26T22:16:32.148Z,1169.00
2023-03-26T22:20:32.101Z,1159.00
2023-03-26T22:24:32.359Z,1167.00
2023-03-26T22:28:32.462Z,1171.00
2023-03-26T22:32:32.871Z,1167.00
2023-03-26T22:36:32.082Z,1170.00
2023-03-26T22:40:32.160Z,1167.00
2023-03-26T22:44:32.503Z,1172.00
2023-03-26T22:48:32.761Z,1162.00
2023-03-26T22:52:32.489Z,1173.00
2023-03-26T22:56:33.094Z,1154.00
2023-03-26T23:00:32.648Z,1162.00
2023-03-26T23:04:32.679Z,1158.00
2023-03-26T23:08:32.703Z,1166.00
2023-03-26T23:12:32.738Z,1161.00
2023-03-26T23:16:32.960Z,1172.00
2023-03-26T23:20:32.992Z,1166.00
2023-03-26T23:24:33.019Z,1172.00
2023-03-26T23:28:33.084Z,1165.00
2023-03-26T23:32:33.281Z,1161.00
2023-03-26T23:36:33.403Z,1169.00
2023-03-26T23:40:33.426Z,1160.00
2023-03-26T23:44:33.460Z,1171.00
2023-03-26T23:48:33.619Z,1164.00
2023-03-26T23:52:33.721Z,1155.00
2023-03-26T23:56:33.714Z,1153.00
